• Join FlightAware (Why Join?)
  • Login
  • US Flag 
02:11AM EDT


 

Airport Tracker/Info


-or-


 

Live Flight TrackerFlight Track Log ✈ MPE478 ✈ 2013年 07月 11日 ✈ CYHK - CYBB

Flight Track Log - Related Links

Times and Time Zones

All times are in EDT time to prevent confusion due to time zone crossing. See the MPE478 flight status page for this flight to view local times or setup timezone preferences in your user account.

Time Position Orientation Groundspeed Altitude Reporting Facility
EDT Latitude Longitude Course Direction KTS MPH feet Rate Location/Type
03:45PM 68.6169 -94.0824 90° East  Level FlightAware Approximate
03:46PM 68.6168 -93.9175 90° East  Level FlightAware Approximate
03:47PM 68.6165 -93.7526 92° East  Level FlightAware Approximate
03:48PM 68.6142 -93.5879 92° East  Level FlightAware Approximate
03:49PM 68.6118 -93.4232 92° East  Level FlightAware Approximate
03:50PM 68.6093 -93.2586 92° East  Level FlightAware Approximate
03:51PM 68.6065 -93.0939 93° East  Level FlightAware Approximate
03:52PM 68.6037 -92.9294 93° East  Level FlightAware Approximate
03:53PM 68.6006 -92.7648 93° East  Level FlightAware Approximate
03:54PM 68.5975 -92.6003 93° East  Level FlightAware Approximate
03:55PM 68.5943 -92.4359 93° East  Level FlightAware Approximate
03:56PM 68.5908 -92.2715 93° East  Level FlightAware Approximate
03:57PM 68.5873 -92.1071 93° East  Level FlightAware Approximate
03:58PM 68.5835 -91.9428 93° East  Level FlightAware Approximate
03:59PM 68.5778 -91.7790 96° East  Level FlightAware Approximate
04:00PM 68.5717 -91.6153 96° East  Level FlightAware Approximate
04:01PM 68.5667 -91.4515 90° East  Level FlightAware Approximate
04:02PM 68.5669 -91.2870 90° East  Level FlightAware Approximate
04:03PM 68.5669 -91.1226 90° East  Level FlightAware Approximate
04:04PM 68.5668 -90.9581 90° East  Level FlightAware Approximate
04:05PM 68.5630 -90.7941 95° East  Level FlightAware Approximate
04:06PM 68.5572 -90.6304 95° East  Level FlightAware Approximate
04:07PM 68.5512 -90.4668 96° East  Level FlightAware Approximate
04:08PM 68.5500 -90.3026 90° East  Level FlightAware Approximate
04:09PM 68.5334 -90.1524 90° East  Level FlightAware Approximate
04:10PM 68.5333 -89.9882 90° East  Level FlightAware Approximate
04:11PM 68.5333 -89.8239 90° East  Level FlightAware Approximate
04:12PM 68.5333 -89.8000 270° West  Level FlightAware Approximate
04:13PM 68.5344 -89.8081 270° West  Level Estimated
04:14PM 68.5333 -89.8000 270° West  Level FlightAware Approximate
04:15PM 68.5344 -89.8081 270° West  Level Estimated
04:16PM 68.5333 -89.8000 270° West  Level FlightAware Approximate
04:17PM 68.5344 -89.8081 270° West  Level Estimated
04:18PM 68.5333 -89.8000 270° West  Level FlightAware Approximate